createdAt,value
2019-05-16T00:01:20.612Z,100434.48
2019-05-16T00:03:53.605Z,100439.37
2019-05-16T00:06:28.400Z,100431.02
2019-05-16T00:09:01.869Z,100429.56
2019-05-16T00:11:38.413Z,100429.92
2019-05-16T00:14:12.413Z,100428.47
2019-05-16T00:16:48.236Z,100422.23
2019-05-16T00:19:20.804Z,100418.42
2019-05-16T00:21:54.306Z,100411.53
2019-05-16T00:24:29.142Z,100417.50
2019-05-16T00:27:02.349Z,100412.08
2019-05-16T00:29:38.160Z,100412.88
2019-05-16T00:32:11.394Z,100404.39
2019-05-16T00:34:44.544Z,100408.96
2019-05-16T00:37:18.198Z,100409.20
2019-05-16T00:39:51.274Z,100410.66
2019-05-16T00:42:24.631Z,100401.41
2019-05-16T00:44:58.501Z,100402.42
2019-05-16T00:47:32.117Z,100391.67
2019-05-16T00:50:05.725Z,100389.41
2019-05-16T00:52:39.620Z,100396.75
2019-05-16T00:55:12.985Z,100392.47
2019-05-16T00:57:48.136Z,100382.39
2019-05-16T01:00:45.862Z,100379.25
2019-05-16T01:03:20.383Z,100373.94
2019-05-16T01:05:54.377Z,100376.19
2019-05-16T01:08:28.244Z,100373.23
2019-05-16T01:11:02.344Z,100370.07
2019-05-16T01:13:35.323Z,100372.58
2019-05-16T01:16:08.650Z,100366.45
2019-05-16T01:18:42.716Z,100366.00
2019-05-16T01:21:18.373Z,100367.81
2019-05-16T01:23:50.924Z,100360.82
2019-05-16T01:26:23.636Z,100362.63
2019-05-16T01:28:57.734Z,100365.55
2019-05-16T01:31:31.174Z,100359.46
2019-05-16T01:34:03.400Z,100355.94
2019-05-16T01:36:40.054Z,100353.23
2019-05-16T01:39:11.962Z,100352.44
2019-05-16T01:41:47.972Z,100353.34
2019-05-16T01:44:20.137Z,100350.06
2019-05-16T01:46:53.124Z,100348.70
2019-05-16T01:49:27.953Z,100342.95
2019-05-16T01:52:00.712Z,100349.52
2019-05-16T01:54:34.517Z,100346.14
2019-05-16T01:57:08.154Z,100340.92
2019-05-16T01:59:42.060Z,100341.38
2019-05-16T02:02:14.623Z,100340.69
2019-05-16T02:04:48.504Z,100340.12
2019-05-16T02:07:22.153Z,100336.17
2019-05-16T02:09:58.093Z,100341.59
2019-05-16T02:12:31.253Z,100330.32
2019-05-16T02:15:07.733Z,100331.44
2019-05-16T02:17:40.619Z,100325.32
2019-05-16T02:20:14.002Z,100322.40
2019-05-16T02:22:48.210Z,100323.97
2019-05-16T02:25:23.462Z,100322.95
2019-05-16T02:27:58.857Z,100325.00
2019-05-16T02:30:31.670Z,100313.36
2019-05-16T02:33:04.373Z,100311.31
2019-05-16T02:35:40.283Z,100307.83
2019-05-16T02:38:12.903Z,100310.44
2019-05-16T02:40:46.609Z,100317.32
2019-05-16T02:43:21.918Z,100309.08
2019-05-16T02:45:55.868Z,100313.59
2019-05-16T02:48:31.601Z,100323.78
2019-05-16T02:51:05.566Z,100313.95
2019-05-16T02:53:41.544Z,100308.88
2019-05-16T02:56:14.299Z,100311.79
2019-05-16T02:58:51.683Z,100320.27
2019-05-16T03:01:22.653Z,100310.56
2019-05-16T03:03:56.112Z,100308.31
2019-05-16T03:06:32.081Z,100312.02
2019-05-16T03:09:06.611Z,100310.32
2019-05-16T03:11:41.910Z,100299.16
2019-05-16T03:14:16.728Z,100299.38
2019-05-16T03:16:51.105Z,100298.27
2019-05-16T03:19:30.938Z,100302.43
2019-05-16T03:22:05.134Z,100294.75
2019-05-16T03:24:41.999Z,100293.84
2019-05-16T03:27:14.450Z,100292.48
2019-05-16T03:29:50.602Z,100297.14
2019-05-16T03:32:24.530Z,100291.50
2019-05-16T03:35:04.023Z,100291.13
2019-05-16T03:37:50.127Z,100289.67
2019-05-16T03:40:11.069Z,100284.94
2019-05-16T03:42:44.409Z,100276.68
2019-05-16T03:45:20.907Z,100273.41
2019-05-16T03:47:52.981Z,100270.80
2019-05-16T03:50:26.273Z,100272.95
2019-05-16T03:53:01.577Z,100264.03
2019-05-16T03:55:34.455Z,100258.27
2019-05-16T03:58:06.746Z,100258.72
2019-05-16T04:00:52.164Z,100259.62
2019-05-16T04:03:23.234Z,100261.42
2019-05-16T04:05:56.966Z,100254.65
2019-05-16T04:08:31.450Z,100251.48
2019-05-16T04:11:04.761Z,100262.48
2019-05-16T04:13:41.224Z,100261.36
2019-05-16T04:16:13.168Z,100260.78
2019-05-16T04:18:46.585Z,100258.88
2019-05-16T04:21:21.944Z,100258.31
2019-05-16T04:23:55.156Z,100256.55
2019-05-16T04:26:30.964Z,100263.64
2019-05-16T04:29:03.173Z,100265.42
2019-05-16T04:31:36.741Z,100263.34
2019-05-16T04:34:11.679Z,100261.68
2019-05-16T04:36:44.962Z,100261.80
2019-05-16T04:39:20.882Z,100265.53
2019-05-16T04:41:53.885Z,100261.09
2019-05-16T04:44:30.982Z,100260.59
2019-05-16T04:47:02.107Z,100256.91
2019-05-16T04:49:35.070Z,100252.73
2019-05-16T04:52:11.236Z,100251.84
2019-05-16T04:54:44.410Z,100254.17
2019-05-16T04:57:20.658Z,100251.81
2019-05-16T04:59:53.157Z,100252.27
2019-05-16T05:02:26.434Z,100253.25
2019-05-16T05:05:01.316Z,100267.03
2019-05-16T05:07:34.882Z,100255.15
2019-05-16T05:10:11.343Z,100256.74
2019-05-16T05:12:43.103Z,100252.41
2019-05-16T05:15:17.267Z,100250.16
2019-05-16T05:17:50.365Z,100250.19
2019-05-16T05:20:24.008Z,100248.30
2019-05-16T05:22:57.008Z,100248.75
2019-05-16T05:25:30.832Z,100238.94
2019-05-16T05:28:04.202Z,100240.30
2019-05-16T05:30:36.875Z,100240.94
2019-05-16T05:33:10.113Z,100237.37
2019-05-16T05:35:43.565Z,100233.28
2019-05-16T05:38:16.580Z,100228.02
2019-05-16T05:40:51.054Z,100231.56
2019-05-16T05:43:24.794Z,100227.55
2019-05-16T05:45:57.493Z,100228.94
2019-05-16T05:48:31.067Z,100233.56
2019-05-16T05:51:04.256Z,100236.62
2019-05-16T05:53:37.132Z,100239.82
2019-05-16T05:56:11.420Z,100241.55
2019-05-16T05:58:44.941Z,100237.56
2019-05-16T06:01:20.459Z,100241.88
2019-05-16T06:03:53.348Z,100240.66
2019-05-16T06:06:30.232Z,100233.13
2019-05-16T06:09:04.718Z,100237.73
2019-05-16T06:11:38.008Z,100234.63
2019-05-16T06:14:11.282Z,100238.53
2019-05-16T06:16:44.289Z,100239.70
2019-05-16T06:19:20.056Z,100239.57
2019-05-16T06:21:53.723Z,100236.52
2019-05-16T06:24:26.701Z,100232.42
2019-05-16T06:27:01.059Z,100231.39
2019-05-16T06:29:33.800Z,100228.88
2019-05-16T06:32:07.093Z,100225.69
2019-05-16T06:34:40.608Z,100224.45
2019-05-16T06:37:13.587Z,100228.27
2019-05-16T06:39:47.095Z,100226.91
2019-05-16T06:42:20.884Z,100224.08
2019-05-16T06:44:53.797Z,100214.34
2019-05-16T06:47:27.555Z,100217.80
2019-05-16T06:50:00.795Z,100209.86
2019-05-16T06:52:33.767Z,100210.21
2019-05-16T06:55:06.854Z,100207.92
2019-05-16T06:57:41.013Z,100206.70
2019-05-16T07:00:14.447Z,100205.70
2019-05-16T07:02:49.981Z,100198.01
2019-05-16T07:05:23.532Z,100196.85
2019-05-16T07:07:57.256Z,100206.06
2019-05-16T07:10:30.653Z,100191.99
2019-05-16T07:13:03.931Z,100192.83
2019-05-16T07:15:37.020Z,100202.90
2019-05-16T07:18:12.928Z,100195.63
2019-05-16T07:20:45.142Z,100195.77
2019-05-16T07:23:20.630Z,100191.97
2019-05-16T07:25:56.241Z,100191.42
2019-05-16T07:28:30.080Z,100190.48
2019-05-16T07:31:14.798Z,100196.57
2019-05-16T07:33:40.668Z,100192.89
2019-05-16T07:36:16.477Z,100184.14
2019-05-16T07:38:50.717Z,100184.40
2019-05-16T07:41:23.997Z,100185.16
2019-05-16T07:43:57.336Z,100174.89
2019-05-16T07:46:31.575Z,100175.89
2019-05-16T07:49:04.883Z,100167.62
2019-05-16T07:51:40.262Z,100159.23
2019-05-16T07:54:14.646Z,100164.94
2019-05-16T07:56:57.201Z,100168.59
2019-05-16T07:59:22.678Z,100160.12
2019-05-16T08:01:56.339Z,100157.43
2019-05-16T08:04:30.544Z,100155.95
2019-05-16T08:07:05.758Z,100151.56
2019-05-16T08:09:39.735Z,100146.17
2019-05-16T08:12:13.060Z,100133.33
2019-05-16T08:14:46.063Z,100141.80
2019-05-16T08:17:21.405Z,100136.26
2019-05-16T08:19:52.938Z,100136.68
2019-05-16T08:22:26.252Z,100136.09
2019-05-16T08:25:00.262Z,100137.20
2019-05-16T08:27:33.846Z,100137.30
2019-05-16T08:30:07.671Z,100130.73
2019-05-16T08:32:42.371Z,100132.38
2019-05-16T08:35:16.383Z,100127.57
2019-05-16T08:37:51.560Z,100131.53
2019-05-16T08:40:24.173Z,100135.53
2019-05-16T08:42:57.107Z,100136.95
2019-05-16T08:45:31.546Z,100133.34
2019-05-16T08:48:04.504Z,100136.46
2019-05-16T08:50:41.120Z,100126.45
2019-05-16T08:53:13.918Z,100130.33
2019-05-16T08:55:46.544Z,100122.58
2019-05-16T08:58:22.532Z,100117.19
2019-05-16T09:00:55.829Z,100124.31
2019-05-16T09:06:04.281Z,100118.87
2019-05-16T09:08:38.031Z,100116.77
2019-05-16T09:10:15.893Z,100122.31
2019-05-16T09:11:39.082Z,100115.80
2019-05-16T09:13:47.707Z,100112.32
2019-05-16T09:16:21.130Z,100105.13
2019-05-16T09:18:54.236Z,100106.68
2019-05-16T09:21:27.713Z,100104.97
2019-05-16T09:24:01.229Z,100104.89
2019-05-16T09:26:38.269Z,100096.11
2019-05-16T09:29:11.101Z,100098.52
2019-05-16T09:32:04.523Z,100093.07
2019-05-16T09:34:19.460Z,100098.52
2019-05-16T09:36:52.074Z,100091.17
2019-05-16T09:39:27.560Z,100085.22
2019-05-16T09:42:00.565Z,100080.66
2019-05-16T09:44:33.887Z,100081.73
2019-05-16T09:47:07.725Z,100079.45
2019-05-16T09:49:40.574Z,100077.67
2019-05-16T09:52:16.438Z,100071.28
2019-05-16T09:54:49.194Z,100063.52
2019-05-16T09:57:22.603Z,100067.04
2019-05-16T09:59:57.155Z,100062.37
2019-05-16T10:02:30.326Z,100062.91
2019-05-16T10:05:12.268Z,100059.49
2019-05-16T10:07:40.227Z,100058.39
2019-05-16T10:10:13.777Z,100054.45
2019-05-16T10:12:47.806Z,100047.13
2019-05-16T10:15:20.948Z,100048.34
2019-05-16T10:17:53.563Z,100058.34
2019-05-16T10:20:27.459Z,100057.91
2019-05-16T10:23:00.969Z,100060.83
2019-05-16T10:25:33.766Z,100059.58
2019-05-16T10:28:07.672Z,100052.12
2019-05-16T10:30:40.753Z,100048.26
2019-05-16T10:33:17.332Z,100048.83
2019-05-16T10:35:49.284Z,100042.12
2019-05-16T10:38:22.389Z,100043.59
2019-05-16T10:40:56.611Z,100045.03
2019-05-16T10:43:30.099Z,100031.67
2019-05-16T10:46:03.118Z,100020.94
2019-05-16T10:48:37.782Z,100020.02
2019-05-16T10:51:11.310Z,100018.52
2019-05-16T10:54:02.586Z,100001.41
2019-05-16T10:56:19.655Z,100007.45
2019-05-16T10:59:27.413Z,100012.86
2019-05-16T11:01:31.163Z,99995.39
2019-05-16T11:04:03.501Z,99998.35
2019-05-16T11:06:37.329Z,99996.97
2019-05-16T11:09:10.652Z,99984.08
2019-05-16T11:11:47.670Z,99982.73
2019-05-16T11:14:21.283Z,99993.47
2019-05-16T11:16:57.940Z,99988.91
2019-05-16T11:19:29.192Z,99983.24
2019-05-16T11:22:02.186Z,99989.30
2019-05-16T11:24:37.705Z,99982.84
2019-05-16T11:27:10.357Z,99990.73
2019-05-16T11:29:43.464Z,99984.34
2019-05-16T11:32:17.204Z,99983.05
2019-05-16T11:34:50.980Z,99976.73
2019-05-16T11:37:23.846Z,99978.68
2019-05-16T11:39:57.231Z,99976.63
2019-05-16T11:42:30.722Z,99981.75
2019-05-16T11:45:08.639Z,99981.70
2019-05-16T11:47:39.264Z,99967.72
2019-05-16T11:50:12.957Z,99970.03
2019-05-16T11:52:47.838Z,99970.23
2019-05-16T11:55:21.285Z,99967.65
2019-05-16T11:57:56.813Z,99968.05
2019-05-16T12:00:30.458Z,99962.10
2019-05-16T12:03:04.159Z,99964.06
2019-05-16T12:05:37.946Z,99969.86
2019-05-16T12:08:11.349Z,99958.69
2019-05-16T12:10:46.930Z,99959.08
2019-05-16T12:13:27.472Z,99957.67
2019-05-16T12:15:56.608Z,99954.23
2019-05-16T12:18:30.439Z,99954.40
2019-05-16T12:21:03.750Z,99961.70
2019-05-16T12:23:38.155Z,99956.88
2019-05-16T12:26:11.574Z,99949.45
2019-05-16T12:28:44.993Z,99941.62
2019-05-16T12:31:18.610Z,99939.01
2019-05-16T12:33:51.639Z,99934.78
2019-05-16T12:36:26.862Z,99932.98
2019-05-16T12:39:00.387Z,99930.28
2019-05-16T12:41:33.895Z,99926.70
2019-05-16T12:44:07.607Z,99923.66
2019-05-16T12:46:41.468Z,99917.69
2019-05-16T12:49:17.351Z,99916.23
2019-05-16T12:51:50.464Z,99916.29
2019-05-16T12:54:24.360Z,99919.93
2019-05-16T12:56:58.236Z,99913.31
2019-05-16T12:59:31.930Z,99907.31
2019-05-16T13:02:07.704Z,99898.12
2019-05-16T13:04:40.332Z,99900.81
2019-05-16T13:07:13.808Z,99899.39
2019-05-16T13:09:50.248Z,99894.53
2019-05-16T13:12:27.032Z,99902.39
2019-05-16T13:14:59.796Z,99894.83
2019-05-16T13:17:37.115Z,99902.34
2019-05-16T13:20:11.248Z,99892.39
2019-05-16T13:22:43.928Z,99896.14
2019-05-16T13:25:18.413Z,99889.67
2019-05-16T13:27:51.158Z,99890.37
2019-05-16T13:30:23.437Z,99882.16
2019-05-16T13:32:56.909Z,99885.54
2019-05-16T13:35:30.652Z,99881.84
2019-05-16T13:38:07.606Z,99877.80
2019-05-16T13:40:39.453Z,99868.17
2019-05-16T13:43:13.270Z,99868.80
2019-05-16T13:45:47.303Z,99856.67
2019-05-16T13:48:20.807Z,99846.58
2019-05-16T13:51:08.325Z,99848.63
2019-05-16T13:53:29.523Z,99844.90
2019-05-16T13:56:02.364Z,99836.97
2019-05-16T13:58:37.276Z,99840.98
2019-05-16T14:01:11.474Z,99825.83
2019-05-16T14:03:44.617Z,99830.52
2019-05-16T14:06:18.547Z,99821.51
2019-05-16T14:08:52.319Z,99815.44
2019-05-16T14:11:25.868Z,99810.73
2019-05-16T14:13:58.294Z,99806.72
2019-05-16T14:16:31.518Z,99798.38
2019-05-16T14:19:04.550Z,99798.23
2019-05-16T14:21:37.489Z,99800.81
2019-05-16T14:24:11.096Z,99802.48
2019-05-16T14:26:46.349Z,99795.42
2019-05-16T14:29:18.838Z,99799.89
2019-05-16T14:31:52.896Z,99796.95
2019-05-16T14:34:27.856Z,99792.86
2019-05-16T14:37:01.686Z,99778.05
2019-05-16T14:39:38.437Z,99768.33
2019-05-16T14:42:10.538Z,99772.03
2019-05-16T14:45:02.978Z,99773.72
2019-05-16T14:47:19.515Z,99773.20
2019-05-16T14:49:52.663Z,99764.06
2019-05-16T14:52:27.133Z,99764.39
2019-05-16T14:55:00.471Z,99759.39
2019-05-16T14:57:33.901Z,99758.95
2019-05-16T15:00:09.583Z,99756.64
2019-05-16T15:02:42.595Z,99748.64
2019-05-16T15:05:16.459Z,99743.73
2019-05-16T15:07:50.854Z,99740.48
2019-05-16T15:10:23.972Z,99744.19
2019-05-16T15:12:57.335Z,99741.08
2019-05-16T15:15:30.455Z,99729.05
2019-05-16T15:18:04.051Z,99733.20
2019-05-16T15:20:36.807Z,99725.39
2019-05-16T15:23:10.717Z,99722.59
2019-05-16T15:25:44.013Z,99705.34
2019-05-16T15:28:17.442Z,99704.91
2019-05-16T15:30:51.007Z,99702.45
2019-05-16T15:33:24.254Z,99698.34
2019-05-16T15:35:58.019Z,99696.24
2019-05-16T15:38:32.513Z,99695.30
2019-05-16T15:41:08.302Z,99694.96
2019-05-16T15:43:41.306Z,99695.05
2019-05-16T15:46:14.464Z,99689.63
2019-05-16T15:48:48.825Z,99682.78
2019-05-16T15:51:22.409Z,99687.07
2019-05-16T15:53:57.207Z,99683.67
2019-05-16T15:56:31.328Z,99677.96
2019-05-16T15:59:06.943Z,99673.09
2019-05-16T16:01:39.425Z,99671.56
2019-05-16T16:04:12.969Z,99665.28
2019-05-16T16:06:47.523Z,99660.89
2019-05-16T16:09:21.505Z,99657.63
2019-05-16T16:11:56.584Z,99658.39
2019-05-16T16:14:29.721Z,99652.55
2019-05-16T16:17:03.052Z,99651.28
2019-05-16T16:19:37.230Z,99649.45
2019-05-16T16:22:10.734Z,99644.89
2019-05-16T16:24:47.536Z,99641.31
2019-05-16T16:27:19.589Z,99638.60
2019-05-16T16:29:53.088Z,99634.09
2019-05-16T16:32:26.967Z,99632.17
2019-05-16T16:35:00.490Z,99618.55
2019-05-16T16:37:33.255Z,99629.31
2019-05-16T16:40:11.409Z,99617.75
2019-05-16T16:42:41.584Z,99615.95
2019-05-16T16:45:16.760Z,99614.65
2019-05-16T16:47:50.361Z,99615.56
2019-05-16T16:50:26.585Z,99614.80
2019-05-16T16:53:00.310Z,99605.61
2019-05-16T16:55:33.297Z,99599.53
2019-05-16T16:58:09.598Z,99603.94
2019-05-16T17:00:42.067Z,99603.60
2019-05-16T17:03:16.694Z,99599.11
2019-05-16T17:05:49.918Z,99596.95
2019-05-16T17:08:23.653Z,99599.67
2019-05-16T17:10:57.653Z,99597.71
2019-05-16T17:13:31.030Z,99598.27
2019-05-16T17:16:04.163Z,99599.07
2019-05-16T17:18:38.272Z,99599.92
2019-05-16T17:21:12.794Z,99596.64
2019-05-16T17:23:46.714Z,99597.14
2019-05-16T17:26:20.335Z,99602.20
2019-05-16T17:28:53.614Z,99602.15
2019-05-16T17:31:26.698Z,99601.59
2019-05-16T17:34:03.299Z,99592.88
2019-05-16T17:36:37.255Z,99591.88
2019-05-16T17:39:11.262Z,99591.44
2019-05-16T17:41:49.182Z,99591.60
2019-05-16T17:44:20.232Z,99592.80
2019-05-16T17:46:53.756Z,99583.04
2019-05-16T17:49:28.296Z,99583.66
2019-05-16T17:52:01.986Z,99582.87
2019-05-16T17:54:37.271Z,99587.53
2019-05-16T17:57:11.137Z,99586.82
2019-05-16T17:59:44.617Z,99580.19
2019-05-16T18:02:18.609Z,99580.31
2019-05-16T18:04:52.138Z,99580.27
2019-05-16T18:07:25.201Z,99576.70
2019-05-16T18:09:59.257Z,99585.58
2019-05-16T18:12:32.836Z,99578.26
2019-05-16T18:15:08.589Z,99577.11
2019-05-16T18:17:42.111Z,99581.67
2019-05-16T18:20:15.793Z,99579.46
2019-05-16T18:22:49.134Z,99580.17
2019-05-16T18:25:22.071Z,99571.89
2019-05-16T18:27:55.663Z,99581.44
2019-05-16T18:30:29.080Z,99579.66
2019-05-16T18:33:02.595Z,99577.03
2019-05-16T18:35:36.973Z,99587.09
2019-05-16T18:38:10.529Z,99580.55
2019-05-16T18:40:43.222Z,99576.38
2019-05-16T18:43:16.987Z,99582.13
2019-05-16T18:45:50.764Z,99576.06
2019-05-16T18:48:23.950Z,99574.47
2019-05-16T18:50:58.399Z,99570.40
2019-05-16T18:53:32.089Z,99561.72
2019-05-16T18:56:07.784Z,99565.35
2019-05-16T18:58:41.175Z,99558.21
2019-05-16T19:01:14.377Z,99560.05
2019-05-16T19:03:48.998Z,99555.68
2019-05-16T19:06:22.659Z,99555.68
2019-05-16T19:08:56.341Z,99553.77
2019-05-16T19:11:31.677Z,99554.08
2019-05-16T19:14:07.394Z,99556.56
2019-05-16T19:16:40.874Z,99546.25
2019-05-16T19:19:13.630Z,99547.44
2019-05-16T19:21:48.544Z,99548.03
2019-05-16T19:24:22.398Z,99547.30
2019-05-16T19:26:57.307Z,99546.88
2019-05-16T19:29:30.932Z,99553.58
2019-05-16T19:32:06.522Z,99545.52
2019-05-16T19:34:39.274Z,99551.80
2019-05-16T19:37:16.098Z,99551.37
2019-05-16T19:39:49.255Z,99552.30
2019-05-16T19:42:22.684Z,99545.38
2019-05-16T19:44:56.432Z,99552.22
2019-05-16T19:47:37.151Z,99544.95
2019-05-16T19:50:06.613Z,99550.64
2019-05-16T19:52:39.566Z,99549.59
2019-05-16T19:55:12.455Z,99543.86
2019-05-16T19:57:46.614Z,99540.60
2019-05-16T20:00:20.066Z,99542.08
2019-05-16T20:02:53.173Z,99539.67
2019-05-16T20:05:26.942Z,99538.94
2019-05-16T20:08:02.293Z,99536.03
2019-05-16T20:10:36.748Z,99535.60
2019-05-16T20:13:09.840Z,99542.44
2019-05-16T20:15:43.639Z,99535.30
2019-05-16T20:18:18.532Z,99534.96
2019-05-16T20:20:51.618Z,99536.09
2019-05-16T20:23:24.256Z,99537.38
2019-05-16T20:25:57.129Z,99540.39
2019-05-16T20:28:31.170Z,99540.30
2019-05-16T20:31:04.451Z,99535.89
2019-05-16T20:33:37.658Z,99533.94
2019-05-16T20:36:11.157Z,99529.30
2019-05-16T20:38:46.549Z,99529.97
2019-05-16T20:41:19.549Z,99533.18
2019-05-16T20:43:53.351Z,99537.58
2019-05-16T20:46:26.462Z,99534.88
2019-05-16T20:49:00.254Z,99541.45
2019-05-16T20:51:33.939Z,99530.61
2019-05-16T20:54:07.097Z,99531.77
2019-05-16T20:56:41.159Z,99534.67
2019-05-16T20:59:17.098Z,99533.32
2019-05-16T21:01:50.854Z,99528.52
2019-05-16T21:04:26.592Z,99524.25
2019-05-16T21:07:05.738Z,99529.45
2019-05-16T21:09:36.872Z,99524.03
2019-05-16T21:12:09.284Z,99523.63
2019-05-16T21:14:43.430Z,99523.09
2019-05-16T21:17:17.392Z,99525.25
2019-05-16T21:19:51.077Z,99524.12
2019-05-16T21:22:23.731Z,99523.33
2019-05-16T21:24:57.196Z,99511.63
2019-05-16T21:27:30.972Z,99519.56
2019-05-16T21:30:04.661Z,99518.77
2019-05-16T21:32:38.355Z,99518.41
2019-05-16T21:35:11.848Z,99520.19
2019-05-16T21:37:46.639Z,99516.26
2019-05-16T21:40:19.062Z,99513.91
2019-05-16T21:42:52.565Z,99509.28
2019-05-16T21:45:28.449Z,99508.92
2019-05-16T21:48:00.782Z,99502.88
2019-05-16T21:50:34.172Z,99504.23
2019-05-16T21:53:07.669Z,99500.78
2019-05-16T21:55:40.223Z,99500.58
2019-05-16T21:58:14.085Z,99497.34
2019-05-16T22:00:51.649Z,99493.44
2019-05-16T22:03:26.820Z,99492.28
2019-05-16T22:06:00.397Z,99493.58
2019-05-16T22:08:33.466Z,99488.22
2019-05-16T22:11:08.920Z,99487.66
2019-05-16T22:13:42.655Z,99490.36
2019-05-16T22:16:17.659Z,99489.94
2019-05-16T22:18:50.174Z,99491.86
2019-05-16T22:21:23.137Z,99488.78
2019-05-16T22:23:57.062Z,99487.03
2019-05-16T22:26:30.551Z,99478.30
2019-05-16T22:29:03.519Z,99477.73
2019-05-16T22:31:37.041Z,99479.09
2019-05-16T22:34:10.623Z,99475.62
2019-05-16T22:36:43.285Z,99479.52
2019-05-16T22:39:17.336Z,99474.72
2019-05-16T22:41:52.980Z,99475.81
2019-05-16T22:44:27.079Z,99479.09
2019-05-16T22:47:00.354Z,99472.73
2019-05-16T22:49:33.249Z,99470.95
2019-05-16T22:52:06.795Z,99473.67
2019-05-16T22:54:40.469Z,99470.17
2019-05-16T22:57:13.869Z,99460.31
2019-05-16T22:59:47.376Z,99461.47
2019-05-16T23:02:20.767Z,99460.67
2019-05-16T23:04:56.597Z,99468.45
2019-05-16T23:07:30.288Z,99465.73
2019-05-16T23:10:03.631Z,99465.03
2019-05-16T23:12:37.460Z,99456.24
2019-05-16T23:15:10.831Z,99466.09
2019-05-16T23:17:46.415Z,99460.53
2019-05-16T23:20:19.463Z,99460.31
2019-05-16T23:22:52.919Z,99461.05
2019-05-16T23:25:26.428Z,99458.34
2019-05-16T23:28:00.605Z,99452.72
2019-05-16T23:30:36.476Z,99450.77
2019-05-16T23:33:09.819Z,99452.72
2019-05-16T23:35:44.034Z,99447.30
2019-05-16T23:38:20.032Z,99443.65
2019-05-16T23:40:52.106Z,99442.80
2019-05-16T23:43:24.803Z,99441.02
2019-05-16T23:45:58.555Z,99436.45
2019-05-16T23:48:31.865Z,99437.91
2019-05-16T23:51:04.478Z,99429.92
2019-05-16T23:53:38.515Z,99431.28
2019-05-16T23:56:11.423Z,99434.92
2019-05-16T23:58:44.710Z,99433.20
